Welcome to Northern Hawkes Bay. New Zealand.
PWS Header
      nz Flag



Hit Counter


W3C Valid W3C Valid logo


    Wairoa

Select any of the Stations below to visit their websites.










Historic Data from Weather Underground
Select the location of interest below. Wairoa is the default. Please have patience, this Data is slow to load in.
Northern Hawkes Bay Historical Data
Daily Summary for November 7, 2017 Units:  Metric    English   Both
« Previous Day
Next Day »
Daily Weekly Monthly Yearly Custom
  High: Low: Average:
Temperature: 23.9 °C 6.6 °C 15.3 °C
Dew Point: 10.8 °C 1.9 °C 7.2 °C
Humidity: 99% 26% 64%
Wind Speed: 24.5km/h 0.0km/h 7.4km/h
Wind Gust: 42.8km/h - -
Wind- - SW
Pressure: 1017.8 hPa 1011.1 hPa -
Precipitation: 0.0 mm    
Historical Graphs
 
 
Tabular Data for November 7, 2017
Time Temperature Dew Point Pressure Wind Wind Speed Wind Gust Humidity Rainfall Rate (Hourly) solar
00:00 9.5 °C 9.1 °C 1017.2 hPa Calm   9.7 km/h 97% 0.0 mm 0 W/m2
00:05 9.4 °C 9.1 °C 1017.5 hPa Calm   9.7 km/h 98% 0.0 mm 0 W/m2
00:10 9.3 °C 9.0 °C 1017.5 hPa NNW 2.6 km/h 6.1 km/h 98% 0.0 mm 0 W/m2
00:15 9.3 °C 9.0 °C 1017.5 hPa NNW 3.5 km/h 7.2 km/h 98% 0.0 mm 0 W/m2
00:20 9.2 °C 8.9 °C 1017.5 hPa NNW 1.1 km/h 8.7 km/h 98% 0.0 mm 0 W/m2
00:25 9.2 °C 8.9 °C 1017.5 hPa NNW 1.1 km/h 8.7 km/h 98% 0.0 mm 0 W/m2
00:30 9.1 °C 8.8 °C 1017.5 hPa North 3.5 km/h 8.7 km/h 98% 0.0 mm 0 W/m2
00:35 9.1 °C 8.8 °C 1017.8 hPa NNW 2.6 km/h 8.7 km/h 98% 0.0 mm 0 W/m2
00:40 9.1 °C 8.8 °C 1017.8 hPa NNW 3.5 km/h 8.7 km/h 98% 0.0 mm 0 W/m2
00:45 9.1 °C 8.8 °C 1017.5 hPa North 5.0 km/h 13.4 km/h 98% 0.0 mm 0 W/m2
00:50 9.2 °C 8.9 °C 1017.5 hPa NNW 3.5 km/h 13.4 km/h 98% 0.0 mm 0 W/m2
00:55 9.2 °C 8.9 °C 1017.8 hPa NNW 6.1 km/h 13.4 km/h 98% 0.0 mm 0 W/m2
01:00 9.2 °C 8.9 °C 1017.5 hPa North 2.6 km/h 14.8 km/h 98% 0.0 mm 0 W/m2
01:05 9.2 °C 8.9 °C 1017.5 hPa North 2.6 km/h 14.8 km/h 98% 0.0 mm 0 W/m2
01:10 9.2 °C 8.9 °C 1017.8 hPa NNW 3.5 km/h 11.1 km/h 98% 0.0 mm 0 W/m2
01:15 9.2 °C 8.8 °C 1017.5 hPa NNW 3.5 km/h 11.1 km/h 97% 0.0 mm 0 W/m2
01:20 9.2 °C 8.9 °C 1017.5 hPa North 7.2 km/h 12.2 km/h 98% 0.0 mm 0 W/m2
01:25 9.2 °C 8.9 °C 1017.5 hPa NNW 3.5 km/h 12.2 km/h 98% 0.0 mm 0 W/m2
01:30 9.1 °C 8.8 °C 1017.5 hPa NNW 1.1 km/h 12.2 km/h 98% 0.0 mm 0 W/m2
01:35 9.1 °C 8.8 °C 1017.5 hPa NNW 2.6 km/h 9.7 km/h 98% 0.0 mm 0 W/m2
01:40 9.0 °C 8.7 °C 1017.2 hPa NNW 3.5 km/h 8.7 km/h 98% 0.0 mm 0 W/m2
01:45 8.9 °C 8.8 °C 1017.5 hPa NNW 8.7 km/h 12.2 km/h 99% 0.0 mm 0 W/m2
01:50 8.9 °C 8.8 °C 1017.5 hPa NNW 6.1 km/h 12.2 km/h 99% 0.0 mm 0 W/m2
01:55 8.9 °C 8.8 °C 1017.5 hPa NNW 6.1 km/h 13.4 km/h 99% 0.0 mm 0 W/m2
02:00 8.8 °C 8.7 °C 1017.5 hPa NNW 8.7 km/h 13.4 km/h 99% 0.0 mm 0 W/m2
02:05 8.8 °C 8.7 °C 1017.5 hPa NNW 6.1 km/h 14.8 km/h 99% 0.0 mm 0 W/m2
02:10 8.7 °C 8.6 °C 1017.5 hPa NNW 5.0 km/h 14.8 km/h 99% 0.0 mm 0 W/m2
02:15 8.7 °C 8.6 °C 1017.5 hPa North 1.1 km/h 12.2 km/h 99% 0.0 mm 0 W/m2
02:20 8.6 °C 8.4 °C 1017.8 hPa North 3.5 km/h 11.1 km/h 99% 0.0 mm 0 W/m2
02:25 8.6 °C 8.4 °C 1017.5 hPa North 6.1 km/h 13.4 km/h 99% 0.0 mm 0 W/m2
02:30 8.5 °C 8.3 °C 1017.5 hPa North 5.0 km/h 13.4 km/h 99% 0.0 mm 0 W/m2
02:35 8.5 °C 8.3 °C 1017.5 hPa NNE 6.1 km/h 11.1 km/h 99% 0.0 mm 0 W/m2
02:40 8.4 °C 8.3 °C 1017.2 hPa North 3.5 km/h 11.1 km/h 99% 0.0 mm 0 W/m2
02:45 8.3 °C 8.2 °C 1017.5 hPa North 2.6 km/h 11.1 km/h 99% 0.0 mm 0 W/m2
02:50 8.3 °C 8.2 °C 1017.2 hPa North 6.1 km/h 12.2 km/h 99% 0.0 mm 0 W/m2
02:55 8.3 °C 8.2 °C 1017.5 hPa North 6.1 km/h 12.2 km/h 99% 0.0 mm 0 W/m2
03:00 8.3 °C 8.2 °C 1017.2 hPa North 3.5 km/h 12.2 km/h 99% 0.0 mm 0 W/m2
03:05 8.3 °C 8.2 °C 1017.2 hPa NNW 3.5 km/h 11.1 km/h 99% 0.0 mm 0 W/m2
03:10 8.2 °C 8.1 °C 1017.2 hPa NNW 3.5 km/h 11.1 km/h 99% 0.0 mm 0 W/m2
03:15 8.2 °C 8.1 °C 1017.2 hPa NNW 6.1 km/h 11.1 km/h 99% 0.0 mm 0 W/m2
03:20 8.1 °C 7.9 °C 1017.2 hPa NNW 6.1 km/h 13.4 km/h 99% 0.0 mm 0 W/m2
03:25 8.0 °C 7.8 °C 1017.2 hPa NW 3.5 km/h 13.4 km/h 99% 0.0 mm 0 W/m2
03:30 7.9 °C 7.4 °C 1017.2 hPa NW 5.0 km/h 13.4 km/h 97% 0.0 mm 0 W/m2
03:35 7.8 °C 7.3 °C 1017.2 hPa NNW 5.0 km/h 11.1 km/h 97% 0.0 mm 0 W/m2
03:40 7.8 °C 7.3 °C 1016.8 hPa NNW 5.0 km/h 11.1 km/h 97% 0.0 mm 0 W/m2
03:45 7.7 °C 7.3 °C 1016.8 hPa NNW 7.2 km/h 11.1 km/h 97% 0.0 mm 0 W/m2
03:50 7.6 °C 7.2 °C 1016.8 hPa North 6.1 km/h 11.1 km/h 97% 0.0 mm 0 W/m2
03:55 7.6 °C 7.2 °C 1016.8 hPa NNW 5.0 km/h 11.1 km/h 97% 0.0 mm 0 W/m2
04:00 7.5 °C 7.1 °C 1016.8 hPa NNW 7.2 km/h 12.2 km/h 97% 0.0 mm 0 W/m2
04:05 7.5 °C 7.1 °C 1016.8 hPa NNW 9.7 km/h 12.2 km/h 97% 0.0 mm 0 W/m2
04:10 7.5 °C 7.1 °C 1017.2 hPa NNW 7.2 km/h 13.4 km/h 97% 0.0 mm 0 W/m2
04:15 7.5 °C 7.1 °C 1017.2 hPa NNW 7.2 km/h 14.8 km/h 97% 0.0 mm 0 W/m2
04:20 7.5 °C 7.1 °C 1016.8 hPa NNW 7.2 km/h 14.8 km/h 97% 0.0 mm 0 W/m2
04:25 7.4 °C 6.9 °C 1017.2 hPa NNW 7.2 km/h 13.4 km/h 97% 0.0 mm 0 W/m2
04:30 7.4 °C 6.9 °C 1016.8 hPa NNW 3.5 km/h 12.2 km/h 97% 0.0 mm 0 W/m2
04:35 7.4 °C 6.9 °C 1016.8 hPa NNW 5.0 km/h 11.1 km/h 97% 0.0 mm 0 W/m2
04:40 7.3 °C 6.8 °C 1016.8 hPa North 6.1 km/h 11.1 km/h 97% 0.0 mm 0 W/m2
04:45 7.4 °C 6.9 °C 1016.8 hPa North 6.1 km/h 13.4 km/h 97% 0.0 mm 0 W/m2
04:50 7.4 °C 6.9 °C 1016.5 hPa North 5.0 km/h 13.4 km/h 97% 0.0 mm 0 W/m2
04:55 7.4 °C 6.9 °C 1016.8 hPa North 3.5 km/h 12.2 km/h 97% 0.0 mm 0 W/m2
05:00 7.3 °C 6.8 °C 1016.8 hPa NNW 3.5 km/h 7.2 km/h 97% 0.0 mm 0 W/m2
05:05 7.2 °C 6.8 °C 1016.8 hPa North 6.1 km/h 9.7 km/h 97% 0.0 mm 0 W/m2
05:10 7.1 °C 6.7 °C 1016.8 hPa North 6.1 km/h 14.8 km/h 97% 0.0 mm 0 W/m2
05:15 7.1 °C 6.7 °C 1016.8 hPa NNW 5.0 km/h 14.8 km/h 97% 0.0 mm 0 W/m2
05:20 7.0 °C 6.6 °C 1016.8 hPa NNW 3.5 km/h 14.8 km/h 97% 0.0 mm 0 W/m2
05:25 7.0 °C 6.6 °C 1016.5 hPa NNW 7.2 km/h 11.1 km/h 97% 0.0 mm 0 W/m2
05:30 6.9 °C 6.6 °C 1016.5 hPa NNW 1.1 km/h 11.1 km/h 98% 0.0 mm 0 W/m2
05:35 6.8 °C 6.5 °C 1016.5 hPa North 6.1 km/h 9.7 km/h 98% 0.0 mm 0 W/m2
05:40 6.8 °C 6.5 °C 1016.5 hPa NNW 5.0 km/h 13.4 km/h 98% 0.0 mm 0 W/m2
05:45 6.8 °C 6.5 °C 1016.5 hPa NNW 6.1 km/h 13.4 km/h 98% 0.0 mm 0 W/m2
05:50 6.7 °C 6.4 °C 1016.8 hPa NNW 5.0 km/h 11.1 km/h 98% 0.0 mm 0 W/m2
05:55 6.6 °C 6.3 °C 1016.8 hPa NNW 7.2 km/h 12.2 km/h 98% 0.0 mm 0 W/m2
06:00 6.6 °C 6.3 °C 1016.8 hPa NNW 8.7 km/h 12.2 km/h 98% 0.0 mm 2 W/m2
06:05 6.6 °C 6.3 °C 1016.8 hPa NNW 6.1 km/h 12.2 km/h 98% 0.0 mm 5 W/m2
06:10 6.7 °C 6.4 °C 1017.2 hPa NNW 9.7 km/h 14.8 km/h 98% 0.0 mm 8 W/m2
06:15 6.7 °C 6.4 °C 1017.2 hPa NW 6.1 km/h 14.8 km/h 98% 0.0 mm 12 W/m2
06:20 6.7 °C 6.4 °C 1017.2 hPa NW 9.7 km/h 14.8 km/h 98% 0.0 mm 17 W/m2
06:25 6.9 °C 6.6 °C 1017.5 hPa NW 11.1 km/h 17.2 km/h 98% 0.0 mm 35 W/m2
06:30 7.2 °C 6.8 °C 1017.5 hPa NNW 3.5 km/h 17.2 km/h 97% 0.0 mm 55 W/m2
06:35 7.4 °C 6.9 °C 1017.2 hPa North 7.2 km/h 14.8 km/h 97% 0.0 mm 65 W/m2
06:40 7.6 °C 7.2 °C 1017.5 hPa North 3.5 km/h 14.8 km/h 97% 0.0 mm 75 W/m2
06:45 7.9 °C 7.4 °C 1017.5 hPa North 3.5 km/h 14.8 km/h 97% 0.0 mm 84 W/m2
06:50 8.4 °C 8.3 °C 1017.5 hPa North 3.5 km/h 8.7 km/h 99% 0.0 mm 90 W/m2
06:55 8.9 °C 8.6 °C 1017.2 hPa North 6.1 km/h 8.7 km/h 98% 0.0 mm 96 W/m2
07:00 9.4 °C 8.5 °C 1017.2 hPa North 2.6 km/h 12.2 km/h 94% 0.0 mm 103 W/m2
07:05 9.8 °C 8.6 °C 1017.2 hPa North 6.1 km/h 12.2 km/h 92% 0.0 mm 105 W/m2
07:10 9.9 °C 8.2 °C 1017.5 hPa North 8.7 km/h 12.2 km/h 89% 0.0 mm 113 W/m2
07:15 10.2 °C 8.1 °C 1017.5 hPa North 9.7 km/h 12.2 km/h 87% 0.0 mm 107 W/m2
07:20 10.1 °C 7.7 °C 1017.5 hPa North 7.2 km/h 12.2 km/h 85% 0.0 mm 123 W/m2
07:25 10.2 °C 7.8 °C 1017.5 hPa North 8.7 km/h 12.2 km/h 85% 0.0 mm 129 W/m2
07:30 10.3 °C 7.7 °C 1017.5 hPa NNW 6.1 km/h 14.8 km/h 84% 0.0 mm 136 W/m2
07:35 10.4 °C 8.0 °C 1017.8 hPa North 7.2 km/h 14.8 km/h 85% 0.0 mm 144 W/m2
07:40 10.6 °C 8.2 °C 1017.5 hPa North 6.1 km/h 11.1 km/h 85% 0.0 mm 153 W/m2
07:45 10.7 °C 8.1 °C 1017.5 hPa NNW 6.1 km/h 11.1 km/h 84% 0.0 mm 165 W/m2
07:50 10.8 °C 8.2 °C 1017.2 hPa North 6.1 km/h 11.1 km/h 84% 0.0 mm 180 W/m2
07:55 11.1 °C 8.2 °C 1017.5 hPa North 5.0 km/h 11.1 km/h 82% 0.0 mm 189 W/m2
08:05 11.3 °C 8.0 °C 1017.5 hPa NNW 6.1 km/h 14.8 km/h 80% 0.0 mm 208 W/m2
08:10 11.5 °C 8.2 °C 1017.5 hPa NW 7.2 km/h 13.4 km/h 80% 0.0 mm 220 W/m2
08:15 12.0 °C 8.5 °C 1017.5 hPa NNW 6.1 km/h 12.2 km/h 79% 0.0 mm 232 W/m2
08:20 12.4 °C 8.7 °C 1017.2 hPa NNW 7.2 km/h 12.2 km/h 78% 0.0 mm 243 W/m2
08:25 12.7 °C 8.8 °C 1017.5 hPa NNW 6.1 km/h 12.2 km/h 77% 0.0 mm 255 W/m2
08:30 12.9 °C 8.8 °C 1017.5 hPa NNW 5.0 km/h 12.2 km/h 76% 0.0 mm 267 W/m2
08:35 13.2 °C 9.1 °C 1017.5 hPa NNW 6.1 km/h 12.2 km/h 76% 0.0 mm 281 W/m2
08:40 13.3 °C 8.9 °C 1017.5 hPa NW 13.4 km/h 15.8 km/h 75% 0.0 mm 293 W/m2
08:45 13.5 °C 9.3 °C 1017.5 hPa NW 7.2 km/h 15.8 km/h 76% 0.0 mm 307 W/m2
08:50 13.9 °C 9.3 °C 1017.2 hPa NNW 3.5 km/h 15.8 km/h 74% 0.0 mm 319 W/m2
08:55 14.4 °C 9.2 °C 1017.5 hPa NNW 5.0 km/h 13.4 km/h 71% 0.0 mm 336 W/m2
09:00 14.6 °C 9.4 °C 1017.5 hPa NNW 2.6 km/h 11.1 km/h 71% 0.0 mm 354 W/m2
09:05 15.2 °C 10.0 °C 1017.5 hPa NW 2.6 km/h 9.7 km/h 71% 0.0 mm 379 W/m2
09:10 16.0 °C 9.9 °C 1017.5 hPa North 6.1 km/h 11.1 km/h 67% 0.0 mm 391 W/m2
09:15 16.7 °C 10.1 °C 1017.5 hPa NNE 8.7 km/h 14.8 km/h 65% 0.0 mm 406 W/m2
09:20 16.3 °C 9.3 °C 1017.2 hPa North 8.7 km/h 19.5 km/h 63% 0.0 mm 393 W/m2
09:25 16.4 °C 9.3 °C 1017.5 hPa North 13.4 km/h 19.5 km/h 63% 0.0 mm 404 W/m2
09:30 16.5 °C 9.4 °C 1017.5 hPa North 6.1 km/h 18.3 km/h 63% 0.0 mm 455 W/m2
09:35 17.2 °C 9.9 °C 1017.2 hPa North 9.7 km/h 18.3 km/h 62% 0.0 mm 487 W/m2
09:40 17.3 °C 9.7 °C 1017.2 hPa NNE 6.1 km/h 19.5 km/h 61% 0.0 mm 442 W/m2
09:45 17.4 °C 9.8 °C 1017.5 hPa North 5.0 km/h 19.5 km/h 61% 0.0 mm 467 W/m2
09:55 18.4 °C 10.0 °C 1017.2 hPa NNE 2.6 km/h 13.4 km/h 58% 0.0 mm 490 W/m2
10:00 18.3 °C 10.2 °C 1017.2 hPa North 7.2 km/h 14.8 km/h 59% 0.0 mm 482 W/m2
10:05 18.0 °C 9.9 °C 1017.2 hPa NNW 7.2 km/h 18.3 km/h 59% 0.0 mm 478 W/m2
10:10 18.2 °C 10.3 °C 1017.5 hPa NNW 6.1 km/h 19.5 km/h 60% 0.0 mm 486 W/m2
10:15 18.6 °C 10.4 °C 1017.5 hPa NNE 6.1 km/h 19.5 km/h 59% 0.0 mm 583 W/m2
10:20 18.6 °C 10.4 °C 1017.5 hPa NE 7.2 km/h 23.3 km/h 59% 0.0 mm 591 W/m2
10:25 18.6 °C 9.9 °C 1017.5 hPa NNE 9.7 km/h 24.5 km/h 57% 0.0 mm 596 W/m2
10:30 18.6 °C 10.4 °C 1017.5 hPa North 15.8 km/h 24.5 km/h 59% 0.0 mm 607 W/m2
10:35 18.5 °C 10.1 °C 1017.2 hPa North 11.1 km/h 21.9 km/h 58% 0.0 mm 550 W/m2
10:40 18.8 °C 10.1 °C 1017.2 hPa NNE 9.7 km/h 21.9 km/h 57% 0.0 mm 647 W/m2
10:45 18.9 °C 10.4 °C 1017.2 hPa NNE 11.1 km/h 19.5 km/h 58% 0.0 mm 664 W/m2
10:50 19.2 °C 10.2 °C 1017.2 hPa North 1.1 km/h 19.5 km/h 56% 0.0 mm 683 W/m2
10:55 20.1 °C 10.8 °C 1017.2 hPa NNE 6.1 km/h 19.5 km/h 55% 0.0 mm 720 W/m2
11:00 19.4 °C 8.4 °C 1017.2 hPa NNW 8.7 km/h 24.5 km/h 49% 0.0 mm 729 W/m2
11:05 19.3 °C 9.8 °C 1017.2 hPa NNW 7.2 km/h 24.5 km/h 54% 0.0 mm 432 W/m2
11:10 20.0 °C 10.2 °C 1016.8 hPa NNW 7.2 km/h 19.5 km/h 53% 0.0 mm 713 W/m2
11:15 20.2 °C 9.8 °C 1017.2 hPa NNW 8.7 km/h 15.8 km/h 51% 0.0 mm 649 W/m2
11:20 20.2 °C 9.2 °C 1016.8 hPa North 11.1 km/h 17.2 km/h 49% 0.0 mm 786 W/m2
11:25 20.2 °C 7.9 °C 1016.8 hPa North 6.1 km/h 17.2 km/h 45% 0.0 mm 361 W/m2
11:35 20.4 °C 6.7 °C 1016.8 hPa North 13.4 km/h 21.9 km/h 41% 0.0 mm 794 W/m2
11:40 20.2 °C 5.8 °C 1016.8 hPa NNE 13.4 km/h 25.6 km/h 39% 0.0 mm 796 W/m2
11:45 20.2 °C 6.6 °C 1016.8 hPa NNE 11.1 km/h 25.6 km/h 41% 0.0 mm 797 W/m2
11:50 20.4 °C 7.4 °C 1016.8 hPa North 15.8 km/h 21.9 km/h 43% 0.0 mm 803 W/m2
11:55 20.6 °C 7.6 °C 1016.8 hPa North 8.7 km/h 21.9 km/h 43% 0.0 mm 811 W/m2
12:00 21.0 °C 7.6 °C 1016.8 hPa North 19.5 km/h 27.0 km/h 42% 0.0 mm 822 W/m2
12:05 20.7 °C 6.3 °C 1016.8 hPa NNW 13.4 km/h 27.0 km/h 39% 0.0 mm 821 W/m2
12:11 20.9 °C 7.5 °C 1016.8 hPa NNW 7.2 km/h 23.3 km/h 42% 0.0 mm 818 W/m2
12:16 21.2 °C 6.3 °C 1016.5 hPa NNW 15.8 km/h 20.9 km/h 38% 0.0 mm 817 W/m2
12:21 21.0 °C 6.9 °C 1016.5 hPa NNW 12.2 km/h 21.9 km/h 40% 0.0 mm 817 W/m2
12:26 21.3 °C 7.5 °C 1016.5 hPa NNW 3.5 km/h 21.9 km/h 41% 0.0 mm 820 W/m2
12:31 21.7 °C 7.2 °C 1016.5 hPa North 9.7 km/h 19.5 km/h 39% 0.0 mm 822 W/m2
12:36 21.5 °C 6.6 °C 1016.1 hPa North 12.2 km/h 18.3 km/h 38% 0.0 mm 819 W/m2
12:41 21.5 °C 7.3 °C 1016.5 hPa NE 12.2 km/h 23.3 km/h 40% 0.0 mm 699 W/m2
12:46 21.7 °C 8.2 °C 1016.1 hPa ENE 5.0 km/h 23.3 km/h 42% 0.0 mm 818 W/m2
12:51 21.7 °C 7.5 °C 1016.1 hPa NNE 13.4 km/h 23.3 km/h 40% 0.0 mm 807 W/m2
12:56 21.6 °C 7.1 °C 1015.8 hPa North 9.7 km/h 18.3 km/h 39% 0.0 mm 807 W/m2
13:01 21.7 °C 7.2 °C 1015.8 hPa North 7.2 km/h 18.3 km/h 39% 0.0 mm 802 W/m2
13:06 21.6 °C 6.3 °C 1015.8 hPa North 8.7 km/h 18.3 km/h 37% 0.0 mm 796 W/m2
13:11 21.9 °C 6.9 °C 1015.8 hPa NNE 5.0 km/h 14.8 km/h 38% 0.0 mm 797 W/m2
13:16 22.2 °C 6.0 °C 1015.5 hPa North 3.5 km/h 20.9 km/h 35% 0.0 mm 794 W/m2
13:21 22.2 °C 5.6 °C 1015.5 hPa North 12.2 km/h 21.9 km/h 34% 0.0 mm 788 W/m2
13:26 22.0 °C 5.8 °C 1015.1 hPa North 13.4 km/h 21.9 km/h 35% 0.0 mm 775 W/m2
13:31 22.2 °C 5.6 °C 1015.5 hPa North 8.7 km/h 21.9 km/h 34% 0.0 mm 772 W/m2
13:36 22.0 °C 5.4 °C 1015.1 hPa North 12.2 km/h 28.0 km/h 34% 0.0 mm 762 W/m2
13:41 22.0 °C 6.7 °C 1015.5 hPa North 15.8 km/h 28.0 km/h 37% 0.0 mm 755 W/m2
13:46 21.8 °C 5.3 °C 1015.1 hPa NNW 17.2 km/h 24.5 km/h 34% 0.0 mm 746 W/m2
13:51 21.9 °C 5.8 °C 1015.1 hPa NNW 9.7 km/h 25.6 km/h 35% 0.0 mm 692 W/m2
13:56 22.2 °C 5.6 °C 1014.8 hPa NNE 12.2 km/h 27.0 km/h 34% 0.0 mm 735 W/m2
14:01 22.3 °C 6.1 °C 1014.8 hPa NNE 9.7 km/h 27.0 km/h 35% 0.0 mm 726 W/m2
14:06 22.7 °C 6.1 °C 1014.8 hPa North 8.7 km/h 23.3 km/h 34% 0.0 mm 723 W/m2
14:11 22.8 °C 5.7 °C 1014.8 hPa North 9.7 km/h 25.6 km/h 33% 0.0 mm 694 W/m2
14:16 22.8 °C 6.9 °C 1014.8 hPa NNE 7.2 km/h 25.6 km/h 36% 0.0 mm 699 W/m2
14:21 22.9 °C 6.7 °C 1014.4 hPa NNE 13.4 km/h 27.0 km/h 35% 0.0 mm 631 W/m2
14:26 22.7 °C 7.7 °C 1014.4 hPa NE 8.7 km/h 27.0 km/h 38% 0.0 mm 631 W/m2
14:31 23.0 °C 8.3 °C 1014.4 hPa ENE 14.8 km/h 27.0 km/h 39% 0.0 mm 618 W/m2
14:36 23.3 °C 8.9 °C 1014.1 hPa NE 8.7 km/h 23.3 km/h 40% 0.0 mm 461 W/m2
14:41 23.4 °C 8.7 °C 1014.1 hPa NNE 9.7 km/h 23.3 km/h 39% 0.0 mm 637 W/m2
14:46 23.9 °C 9.5 °C 1014.1 hPa NE 5.0 km/h 18.3 km/h 40% 0.0 mm 647 W/m2
14:51 23.9 °C 8.7 °C 1014.1 hPa NE 9.7 km/h 23.3 km/h 38% 0.0 mm 489 W/m2
14:56 23.4 °C 7.9 °C 1013.8 hPa North 7.2 km/h 25.6 km/h 37% 0.0 mm 496 W/m2
15:01 23.4 °C 9.1 °C 1013.8 hPa North 2.6 km/h 25.6 km/h 40% 0.0 mm 616 W/m2
15:06 23.8 °C 5.7 °C 1013.8 hPa North 13.4 km/h 31.7 km/h 31% 0.0 mm 559 W/m2
15:11 23.8 °C 6.1 °C 1013.8 hPa NW 13.4 km/h 31.7 km/h 32% 0.0 mm 539 W/m2
15:16 23.6 °C 5.5 °C 1013.4 hPa NNW 15.8 km/h 25.6 km/h 31% 0.0 mm 484 W/m2
15:21 23.1 °C 4.6 °C 1013.4 hPa NW 17.2 km/h 31.7 km/h 30% 0.0 mm 479 W/m2
15:26 23.2 °C 5.6 °C 1013.1 hPa NW 20.9 km/h 35.6 km/h 32% 0.0 mm 521 W/m2
15:31 23.5 °C 5.4 °C 1013.4 hPa NW 19.5 km/h 35.6 km/h 31% 0.0 mm 481 W/m2
15:36 23.5 °C 5.4 °C 1013.4 hPa NNW 20.9 km/h 35.6 km/h 31% 0.0 mm 442 W/m2
15:41 23.5 °C 5.4 °C 1013.4 hPa NNW 15.8 km/h 35.6 km/h 31% 0.0 mm 436 W/m2
15:46 23.3 °C 5.7 °C 1013.8 hPa NNW 13.4 km/h 29.4 km/h 32% 0.0 mm 340 W/m2
15:51 23.4 °C 5.8 °C 1013.8 hPa NNW 18.3 km/h 34.3 km/h 32% 0.0 mm 461 W/m2
15:56 23.3 °C 6.2 °C 1013.4 hPa North 13.4 km/h 34.3 km/h 33% 0.0 mm 406 W/m2
16:01 23.1 °C 5.9 °C 1013.8 hPa NNW 17.2 km/h 34.3 km/h 33% 0.0 mm 381 W/m2
16:06 22.7 °C 5.6 °C 1013.8 hPa NNW 15.8 km/h 33.1 km/h 33% 0.0 mm 258 W/m2
16:13 22.4 °C 5.3 °C 1013.8 hPa North 17.2 km/h 34.3 km/h 33% 0.0 mm 534 W/m2
16:18 22.7 °C 5.2 °C 1013.4 hPa North 21.9 km/h 34.3 km/h 32% 0.0 mm 533 W/m2
16:23 22.9 °C 4.9 °C 1013.4 hPa NNW 15.8 km/h 34.3 km/h 31% 0.0 mm 503 W/m2
16:29 22.8 °C 4.8 °C 1013.8 hPa NNW 14.8 km/h 42.8 km/h 31% 0.0 mm 510 W/m2
16:34 22.9 °C 4.9 °C 1013.4 hPa North 23.3 km/h 42.8 km/h 31% 0.0 mm 501 W/m2
16:39 22.7 °C 4.7 °C 1013.8 hPa North 19.5 km/h 34.3 km/h 31% 0.0 mm 458 W/m2
16:44 22.8 °C 5.3 °C 1013.4 hPa NNW 24.5 km/h 34.3 km/h 32% 0.0 mm 456 W/m2
16:47 22.7 °C 4.7 °C 1013.4 hPa NNW 15.8 km/h 34.3 km/h 31% 0.0 mm 483 W/m2
16:52 22.6 °C 4.2 °C 1013.8 hPa North 15.8 km/h 34.3 km/h 30% 0.0 mm 464 W/m2
16:57 22.3 °C 1.9 °C 1013.4 hPa NNW 9.7 km/h 36.7 km/h 26% 0.0 mm 400 W/m2
17:02 21.8 °C 3.0 °C 1013.4 hPa NNW 8.7 km/h 36.7 km/h 29% 0.0 mm 264 W/m2
17:07 21.4 °C 4.1 °C 1013.4 hPa North 5.0 km/h 30.6 km/h 32% 0.0 mm 206 W/m2
17:12 20.9 °C 4.1 °C 1013.4 hPa NNW 11.1 km/h 25.6 km/h 33% 0.0 mm 185 W/m2
17:17 20.4 °C 3.6 °C 1013.1 hPa NNW 6.1 km/h 36.7 km/h 33% 0.0 mm 148 W/m2
17:22 20.2 °C 3.8 °C 1013.1 hPa North 15.8 km/h 36.7 km/h 34% 0.0 mm 121 W/m2
17:27 19.9 °C 4.0 °C 1013.1 hPa North 19.5 km/h 31.7 km/h 35% 0.0 mm 110 W/m2
17:32 19.7 °C 4.2 °C 1013.4 hPa NNW 13.4 km/h 31.7 km/h 36% 0.0 mm 107 W/m2
17:37 19.6 °C 4.5 °C 1013.4 hPa North 7.2 km/h 31.7 km/h 37% 0.0 mm 107 W/m2
17:42 19.5 °C 4.8 °C 1013.4 hPa NNW 11.1 km/h 29.4 km/h 38% 0.0 mm 99 W/m2
17:47 19.5 °C 5.2 °C 1013.4 hPa NNW 12.2 km/h 27.0 km/h 39% 0.0 mm 83 W/m2
17:52 19.3 °C 5.4 °C 1013.1 hPa NNW 14.8 km/h 23.3 km/h 40% 0.0 mm 66 W/m2
17:57 19.1 °C 5.6 °C 1013.1 hPa North 7.2 km/h 23.3 km/h 41% 0.0 mm 60 W/m2
18:02 19.0 °C 6.2 °C 1013.1 hPa North 6.1 km/h 20.9 km/h 43% 0.0 mm 66 W/m2
18:07 19.0 °C 6.5 °C 1013.1 hPa North 1.1 km/h 15.8 km/h 44% 0.0 mm 67 W/m2
18:12 19.1 °C 6.6 °C 1013.4 hPa North 1.1 km/h 15.8 km/h 44% 0.0 mm 88 W/m2
18:17 19.1 °C 6.6 °C 1013.4 hPa North 6.1 km/h 13.4 km/h 44% 0.0 mm 97 W/m2
18:22 19.2 °C 6.7 °C 1013.4 hPa North 3.5 km/h 12.2 km/h 44% 0.0 mm 109 W/m2
18:27 19.7 °C 7.1 °C 1013.1 hPa North 5.0 km/h 15.8 km/h 44% 0.0 mm 86 W/m2
18:32 20.2 °C 6.6 °C 1013.1 hPa NE 12.2 km/h 15.8 km/h 41% 0.0 mm 102 W/m2
18:37 19.6 °C 6.3 °C 1012.8 hPa NNE 3.5 km/h 20.9 km/h 42% 0.0 mm 67 W/m2
18:42 19.4 °C 6.8 °C 1013.1 hPa Calm   20.9 km/h 44% 0.0 mm 61 W/m2
18:47 19.1 °C 6.6 °C 1013.1 hPa NNE 5.0 km/h 9.7 km/h 44% 0.0 mm 48 W/m2
18:52 18.9 °C 7.1 °C 1013.1 hPa Calm   9.7 km/h 46% 0.0 mm 38 W/m2
18:57 18.6 °C 6.8 °C 1013.1 hPa NNE 9.7 km/h 17.2 km/h 46% 0.0 mm 26 W/m2
19:02 18.4 °C 6.9 °C 1013.1 hPa North 1.1 km/h 20.9 km/h 47% 0.0 mm 19 W/m2
19:07 18.2 °C 7.0 °C 1013.1 hPa NNE 3.5 km/h 20.9 km/h 48% 0.0 mm 15 W/m2
19:12 18.1 °C 7.2 °C 1013.1 hPa NNE 1.1 km/h 15.8 km/h 49% 0.0 mm 12 W/m2
19:17 17.9 °C 6.7 °C 1013.1 hPa North 3.5 km/h 14.8 km/h 48% 0.0 mm 9 W/m2
19:22 17.9 °C 6.1 °C 1013.1 hPa North 11.1 km/h 18.3 km/h 46% 0.0 mm 4 W/m2
19:27 17.9 °C 5.5 °C 1013.1 hPa North 5.0 km/h 18.3 km/h 44% 0.0 mm 3 W/m2
19:37 17.6 °C 5.2 °C 1013.1 hPa Calm   17.2 km/h 44% 0.0 mm 0 W/m2
19:42 17.5 °C 5.1 °C 1013.1 hPa North 8.7 km/h 35.6 km/h 44% 0.0 mm 0 W/m2
19:47 17.5 °C 4.8 °C 1013.1 hPa North 12.2 km/h 35.6 km/h 43% 0.0 mm 0 W/m2
19:52 17.5 °C 4.4 °C 1012.8 hPa North 18.3 km/h 30.6 km/h 42% 0.0 mm 0 W/m2
19:57 17.4 °C 4.4 °C 1012.8 hPa NNW 14.8 km/h 30.6 km/h 42% 0.0 mm 0 W/m2
20:02 17.3 °C 4.6 °C 1012.8 hPa NNW 11.1 km/h 29.4 km/h 43% 0.0 mm 0 W/m2
20:07 17.2 °C 5.2 °C 1013.1 hPa NNW 7.2 km/h 25.6 km/h 45% 0.0 mm 0 W/m2
20:12 17.0 °C 6.2 °C 1012.8 hPa NNW 5.0 km/h 20.9 km/h 49% 0.0 mm 0 W/m2
20:28 16.7 °C 7.3 °C 1012.8 hPa NNW 5.0 km/h 21.9 km/h 54% 0.0 mm 0 W/m2
20:33 16.5 °C 7.2 °C 1012.8 hPa NNW 6.1 km/h 21.9 km/h 54% 0.0 mm 0 W/m2
20:38 16.5 °C 7.2 °C 1012.8 hPa North 7.2 km/h 17.2 km/h 54% 0.0 mm 0 W/m2
20:43 16.5 °C 6.9 °C 1012.8 hPa North 11.1 km/h 19.5 km/h 53% 0.0 mm 0 W/m2
20:48 16.5 °C 6.9 °C 1012.8 hPa North 2.6 km/h 19.5 km/h 53% 0.0 mm 0 W/m2
20:53 16.4 °C 6.8 °C 1012.8 hPa NNE 7.2 km/h 19.5 km/h 53% 0.0 mm 0 W/m2
20:58 16.4 °C 6.8 °C 1012.8 hPa North 1.1 km/h 15.8 km/h 53% 0.0 mm 0 W/m2
21:03 16.3 °C 6.7 °C 1013.1 hPa North 7.2 km/h 19.5 km/h 53% 0.0 mm 0 W/m2
21:08 16.3 °C 6.7 °C 1013.1 hPa NNE 7.2 km/h 19.5 km/h 53% 0.0 mm 0 W/m2
21:13 16.2 °C 6.6 °C 1013.1 hPa NNE 2.6 km/h 28.0 km/h 53% 0.0 mm 0 W/m2
21:18 16.2 °C 6.3 °C 1013.1 hPa NNE 6.1 km/h 28.0 km/h 52% 0.0 mm 0 W/m2
21:23 16.1 °C 6.2 °C 1012.8 hPa NNE 11.1 km/h 20.9 km/h 52% 0.0 mm 0 W/m2
21:28 16.0 °C 6.4 °C 1013.1 hPa NNE 1.1 km/h 20.9 km/h 53% 0.0 mm 0 W/m2
21:33 15.9 °C 6.3 °C 1012.8 hPa NNE 7.2 km/h 20.9 km/h 53% 0.0 mm 0 W/m2
21:51 15.8 °C 6.2 °C 1012.8 hPa NNE 2.6 km/h 14.8 km/h 53% 0.0 mm 0 W/m2
21:56 15.8 °C 5.9 °C 1013.1 hPa North 7.2 km/h 18.3 km/h 52% 0.0 mm 0 W/m2
22:01 15.7 °C 6.2 °C 1013.1 hPa North 6.1 km/h 18.3 km/h 53% 0.0 mm 0 W/m2
22:06 15.6 °C 5.8 °C 1012.8 hPa North 14.8 km/h 19.5 km/h 52% 0.0 mm 0 W/m2
22:11 15.6 °C 5.8 °C 1012.8 hPa North 5.0 km/h 19.5 km/h 52% 0.0 mm 0 W/m2
22:16 15.5 °C 5.7 °C 1012.8 hPa North 3.5 km/h 19.5 km/h 52% 0.0 mm 0 W/m2
22:21 15.5 °C 5.4 °C 1012.8 hPa NNW 3.5 km/h 17.2 km/h 51% 0.0 mm 0 W/m2
22:26 15.5 °C 5.4 °C 1012.8 hPa NNW 5.0 km/h 17.2 km/h 51% 0.0 mm 0 W/m2
22:31 15.5 °C 5.4 °C 1012.8 hPa NNW 6.1 km/h 17.2 km/h 51% 0.0 mm 0 W/m2
22:36 15.5 °C 5.4 °C 1012.8 hPa NNW 6.1 km/h 17.2 km/h 51% 0.0 mm 0 W/m2
22:41 15.5 °C 5.7 °C 1012.4 hPa NNW 1.1 km/h 12.2 km/h 52% 0.0 mm 0 W/m2
22:46 15.2 °C 5.7 °C 1012.4 hPa NNW 1.1 km/h 12.2 km/h 53% 0.0 mm 0 W/m2
22:51 15.1 °C 5.6 °C 1012.4 hPa Calm   6.1 km/h 53% 0.0 mm 0 W/m2
22:56 15.0 °C 5.8 °C 1012.4 hPa NNW 1.1 km/h 5.0 km/h 54% 0.0 mm 0 W/m2
23:01 15.1 °C 5.6 °C 1012.1 hPa Calm   5.0 km/h 53% 0.0 mm 0 W/m2
23:06 15.1 °C 5.6 °C 1012.1 hPa Calm   5.0 km/h 53% 0.0 mm 0 W/m2
23:11 15.1 °C 5.6 °C 1012.1 hPa Calm   5.0 km/h 53% 0.0 mm 0 W/m2
23:16 15.1 °C 5.6 °C 1012.1 hPa Calm     53% 0.0 mm 0 W/m2
23:21 15.0 °C 5.8 °C 1012.1 hPa Calm     54% 0.0 mm 0 W/m2
23:26 15.0 °C 5.8 °C 1012.1 hPa Calm     54% 0.0 mm 0 W/m2
23:31 14.8 °C 6.1 °C 1012.1 hPa Calm     56% 0.0 mm 0 W/m2
23:36 14.7 °C 6.3 °C 1011.7 hPa Calm     57% 0.0 mm 0 W/m2
23:41 14.6 °C 6.4 °C 1011.4 hPa Calm     58% 0.0 mm 0 W/m2
23:46 14.6 °C 6.9 °C 1011.4 hPa Calm     60% 0.0 mm 0 W/m2
23:51 14.6 °C 7.2 °C 1011.4 hPa Calm     61% 0.0 mm 0 W/m2
23:56 14.6 °C 7.4 °C 1011.1 hPa Calm   1.1 km/h 62% 0.0 mm 0 W/m2
Northern Hawkes Bay. New Zealand Historic Data
Compliments of Weather Underground - 2 mb